Time,TemperatureF,DewpointF,PressureIn,WindDirection,WindDirectionDegrees,WindSpeedMPH,WindSpeedGustMPH,Humidity,HourlyPrecipIn,Conditions,Clouds,dailyrainin,SoftwareType,DateUTC
2013-07-14 00:02:00,71.0,65.0,29.96,SE,132,0.0,0.0,81,0.00,,,0.00,,2013-07-14 05:02:00,
2013-07-14 00:11:00,71.0,65.0,29.96,SE,132,0.0,0.0,81,0.00,,,0.00,,2013-07-14 05:11:00,
2013-07-14 00:23:00,71.0,64.0,29.96,SE,144,0.0,0.0,79,0.00,,,0.00,,2013-07-14 05:23:00,
2013-07-14 00:32:00,70.0,64.0,29.96,SE,140,0.0,0.0,81,0.00,,,0.00,,2013-07-14 05:32:00,
2013-07-14 00:43:00,70.0,64.0,29.96,SE,140,0.0,0.0,81,0.00,,,0.00,,2013-07-14 05:43:00,
2013-07-14 00:53:00,71.0,64.0,29.96,SE,141,0.0,0.0,79,0.00,,,0.00,,2013-07-14 05:53:00,
2013-07-14 01:01:00,71.0,64.0,29.96,SE,141,0.0,0.0,79,0.00,,,0.00,,2013-07-14 06:01:00,
2013-07-14 01:11:00,71.0,64.0,29.96,SE,141,0.0,0.0,79,0.00,,,0.00,,2013-07-14 06:11:00,
2013-07-14 01:22:00,71.0,64.0,29.96,SE,141,0.0,0.0,79,0.00,,,0.00,,2013-07-14 06:22:00,
2013-07-14 01:32:00,67.0,62.0,29.95,SE,141,0.0,0.0,84,0.00,,,0.00,,2013-07-14 06:32:00,
2013-07-14 01:42:00,67.0,62.0,29.95,SE,141,0.0,0.0,84,0.00,,,0.00,,2013-07-14 06:42:00,
2013-07-14 01:53:00,67.0,62.0,29.95,SE,141,0.0,0.0,85,0.00,,,0.00,,2013-07-14 06:53:00,
2013-07-14 02:02:00,66.0,61.0,29.95,SE,141,0.0,0.0,85,0.00,,,0.00,,2013-07-14 07:02:00,
2013-07-14 02:12:00,66.0,61.0,29.95,SE,141,0.0,0.0,85,0.00,,,0.00,,2013-07-14 07:12:00,
2013-07-14 02:22:00,66.0,61.0,29.95,SE,141,0.0,0.0,85,0.00,,,0.00,,2013-07-14 07:22:00,
2013-07-14 02:33:00,64.0,60.0,29.95,SE,141,0.0,0.0,88,0.00,,,0.00,,2013-07-14 07:33:00,
2013-07-14 02:43:00,64.0,60.0,29.95,SE,141,0.0,0.0,88,0.00,,,0.00,,2013-07-14 07:43:00,
2013-07-14 02:53:00,64.0,61.0,29.96,SE,141,0.0,0.0,89,0.00,,,0.00,,2013-07-14 07:53:00,
2013-07-14 03:01:00,65.0,62.0,29.95,SE,141,0.0,0.0,89,0.00,,,0.00,,2013-07-14 08:01:00,
2013-07-14 03:11:00,65.0,62.0,29.95,SE,141,0.0,0.0,89,0.00,,,0.00,,2013-07-14 08:11:00,
2013-07-14 03:22:00,65.0,62.0,29.95,SE,141,0.0,0.0,89,0.00,,,0.00,,2013-07-14 08:22:00,
2013-07-14 03:32:00,65.0,61.0,29.95,SE,141,0.0,0.0,88,0.00,,,0.00,,2013-07-14 08:32:00,
2013-07-14 03:42:00,65.0,61.0,29.95,SE,141,0.0,0.0,88,0.00,,,0.00,,2013-07-14 08:42:00,
2013-07-14 03:53:00,65.0,61.0,29.95,SE,141,0.0,0.0,87,0.00,,,0.00,,2013-07-14 08:53:00,
2013-07-14 04:01:00,65.0,61.0,29.95,SE,141,0.0,0.0,87,0.00,,,0.00,,2013-07-14 09:01:00,
2013-07-14 04:11:00,65.0,61.0,29.95,SE,141,0.0,0.0,87,0.00,,,0.00,,2013-07-14 09:11:00,
2013-07-14 04:22:00,65.0,61.0,29.96,SE,141,0.0,0.0,88,0.00,,,0.00,,2013-07-14 09:22:00,
2013-07-14 04:32:00,64.0,60.0,29.96,SE,141,0.0,0.0,88,0.00,,,0.00,,2013-07-14 09:32:00,
2013-07-14 04:42:00,64.0,60.0,29.96,SE,141,0.0,0.0,88,0.00,,,0.00,,2013-07-14 09:42:00,
2013-07-14 04:53:00,64.0,60.0,29.96,SE,141,0.0,0.0,87,0.00,,,0.00,,2013-07-14 09:53:00,
2013-07-14 05:01:00,63.0,59.0,29.97,SE,141,0.0,0.0,88,0.00,,,0.00,,2013-07-14 10:01:00,
2013-07-14 05:11:00,63.0,59.0,29.97,SE,141,0.0,0.0,88,0.00,,,0.00,,2013-07-14 10:11:00,
2013-07-14 05:22:00,62.0,58.0,29.97,SE,141,0.0,0.0,88,0.00,,,0.00,,2013-07-14 10:22:00,
2013-07-14 05:32:00,60.0,57.0,29.97,SE,141,0.0,0.0,91,0.00,,,0.00,,2013-07-14 10:32:00,
2013-07-14 05:42:00,60.0,57.0,29.97,SE,141,0.0,0.0,91,0.00,,,0.00,,2013-07-14 10:42:00,
2013-07-14 05:53:00,60.0,57.0,29.97,SE,141,0.0,0.0,91,0.00,,,0.00,,2013-07-14 10:53:00,
2013-07-14 06:02:00,61.0,59.0,29.97,SE,141,0.0,0.0,93,0.00,,,0.00,,2013-07-14 11:02:00,
2013-07-14 06:11:00,61.0,59.0,29.97,SE,141,0.0,0.0,93,0.00,,,0.00,,2013-07-14 11:11:00,
2013-07-14 06:22:00,60.0,58.0,29.97,SE,141,0.0,0.0,93,0.00,,,0.00,,2013-07-14 11:22:00,
2013-07-14 06:32:00,59.0,57.0,29.97,SE,141,0.0,0.0,92,0.00,,,0.00,,2013-07-14 11:32:00,
2013-07-14 06:43:00,59.0,57.0,29.97,SE,141,0.0,0.0,92,0.00,,,0.00,,2013-07-14 11:43:00,
2013-07-14 06:53:00,58.0,56.0,29.98,SE,141,0.0,0.0,93,0.00,,,0.00,,2013-07-14 11:53:00,
2013-07-14 07:02:00,60.0,58.0,29.98,SE,141,0.0,0.0,94,0.00,,,0.00,,2013-07-14 12:02:00,
2013-07-14 07:11:00,60.0,58.0,29.98,SE,141,0.0,0.0,94,0.00,,,0.00,,2013-07-14 12:11:00,
2013-07-14 07:22:00,62.0,61.0,29.98,SE,141,0.0,0.0,95,0.00,,,0.00,,2013-07-14 12:22:00,
2013-07-14 07:33:00,64.0,62.0,29.99,SE,141,0.0,0.0,93,0.00,,,0.00,,2013-07-14 12:33:00,
2013-07-14 07:43:00,64.0,62.0,29.99,SE,141,0.0,0.0,93,0.00,,,0.00,,2013-07-14 12:43:00,
2013-07-14 07:53:00,66.0,63.0,29.99,SE,141,0.0,0.0,91,0.00,,,0.00,,2013-07-14 12:53:00,
2013-07-14 08:01:00,67.0,63.0,30.00,SE,141,0.0,0.0,88,0.00,,,0.00,,2013-07-14 13:01:00,
2013-07-14 08:11:00,67.0,63.0,30.00,SE,141,0.0,0.0,88,0.00,,,0.00,,2013-07-14 13:11:00,
2013-07-14 08:22:00,68.0,64.0,30.01,SE,141,0.0,0.0,87,0.00,,,0.00,,2013-07-14 13:22:00,
2013-07-14 08:32:00,68.0,63.0,30.01,SE,141,0.0,0.0,85,0.00,,,0.00,,2013-07-14 13:32:00,
2013-07-14 08:42:00,68.0,63.0,30.01,SE,141,0.0,0.0,85,0.00,,,0.00,,2013-07-14 13:42:00,
2013-07-14 08:53:00,69.0,64.0,30.02,SE,141,0.0,0.0,85,0.00,,,0.00,,2013-07-14 13:53:00,
2013-07-14 09:02:00,72.0,64.0,30.02,SE,141,6.0,10.0,77,0.00,,,0.00,,2013-07-14 14:02:00,
2013-07-14 09:11:00,72.0,64.0,30.02,SE,141,6.0,10.0,77,0.00,,,0.00,,2013-07-14 14:11:00,
2013-07-14 09:23:00,74.0,66.0,30.02,SE,141,6.0,8.0,75,0.00,,,0.00,,2013-07-14 14:23:00,
2013-07-14 09:30:00,78.0,63.0,30.02,South,176,12.0,14.0,61,0.00,,,0.00,,2013-07-14 14:30:00,
2013-07-14 09:33:00,74.0,66.0,30.02,SE,141,6.0,8.0,75,0.00,,,0.00,,2013-07-14 14:33:00,
2013-07-14 09:43:00,78.0,63.0,30.02,South,176,12.0,14.0,61,0.00,,,0.00,,2013-07-14 14:43:00,
2013-07-14 09:53:00,78.0,63.0,30.02,South,176,12.0,14.0,61,0.00,,,0.00,,2013-07-14 14:53:00,
2013-07-14 10:01:00,78.0,63.0,30.02,South,176,12.0,14.0,61,0.00,,,0.00,,2013-07-14 15:01:00,
2013-07-14 10:12:00,78.0,63.0,30.02,South,176,12.0,14.0,61,0.00,,,0.00,,2013-07-14 15:12:00,
2013-07-14 10:22:00,78.0,63.0,30.02,South,176,12.0,14.0,61,0.00,,,0.00,,2013-07-14 15:22:00,
2013-07-14 10:53:00,80.0,64.0,30.02,South,182,12.0,18.0,58,0.00,,,0.00,,2013-07-14 15:53:00,
2013-07-14 11:01:00,80.0,63.0,30.02,South,171,12.0,18.0,56,0.00,,,0.00,,2013-07-14 16:01:00,
2013-07-14 11:11:00,80.0,63.0,30.02,South,171,12.0,18.0,56,0.00,,,0.00,,2013-07-14 16:11:00,
2013-07-14 11:22:00,80.0,62.0,30.02,South,174,12.0,19.0,55,0.00,,,0.00,,2013-07-14 16:22:00,
2013-07-14 11:32:00,80.0,63.0,30.02,South,181,10.0,15.0,56,0.00,,,0.00,,2013-07-14 16:32:00,
2013-07-14 11:43:00,80.0,63.0,30.02,South,181,10.0,15.0,56,0.00,,,0.00,,2013-07-14 16:43:00,
2013-07-14 11:53:00,81.0,63.0,30.01,South,183,9.0,18.0,55,0.00,,,0.00,,2013-07-14 16:53:00,
2013-07-14 12:02:00,81.0,63.0,30.01,SSW,192,9.0,15.0,55,0.00,,,0.00,,2013-07-14 17:02:00,
2013-07-14 12:11:00,81.0,63.0,30.01,SSW,192,9.0,15.0,55,0.00,,,0.00,,2013-07-14 17:11:00,
2013-07-14 12:22:00,81.0,62.0,30.01,South,176,7.0,16.0,52,0.00,,,0.00,,2013-07-14 17:22:00,
2013-07-14 12:32:00,82.0,62.0,30.01,South,170,9.0,16.0,51,0.00,,,0.00,,2013-07-14 17:32:00,
2013-07-14 12:43:00,82.0,62.0,30.01,South,170,9.0,16.0,51,0.00,,,0.00,,2013-07-14 17:43:00,
2013-07-14 12:53:00,82.0,63.0,30.01,SSE,149,13.0,16.0,52,0.00,,,0.00,,2013-07-14 17:53:00,
2013-07-14 13:01:00,83.0,64.0,30.01,South,188,10.0,18.0,52,0.00,,,0.00,,2013-07-14 18:01:00,
2013-07-14 13:11:00,83.0,64.0,30.01,South,188,10.0,18.0,52,0.00,,,0.00,,2013-07-14 18:11:00,
2013-07-14 13:22:00,83.0,62.0,30.00,South,171,10.0,19.0,50,0.00,,,0.00,,2013-07-14 18:22:00,
2013-07-14 13:32:00,83.0,62.0,30.00,South,171,10.0,19.0,50,0.00,,,0.00,,2013-07-14 18:32:00,
2013-07-14 13:42:00,83.0,62.0,30.00,South,171,10.0,19.0,50,0.00,,,0.00,,2013-07-14 18:42:00,
2013-07-14 13:52:00,83.0,62.0,30.00,South,171,10.0,19.0,50,0.00,,,0.00,,2013-07-14 18:52:00,
2013-07-14 14:01:00,84.0,63.0,30.00,SE,128,7.0,15.0,49,0.00,,,0.00,,2013-07-14 19:01:00,
2013-07-14 14:11:00,84.0,63.0,30.00,SE,128,7.0,15.0,49,0.00,,,0.00,,2013-07-14 19:11:00,
2013-07-14 14:22:00,83.0,64.0,29.99,SE,126,11.0,13.0,52,0.00,,,0.00,,2013-07-14 19:22:00,
2013-07-14 14:32:00,84.0,64.0,29.99,ESE,111,8.0,15.0,52,0.00,,,0.00,,2013-07-14 19:32:00,
2013-07-14 14:43:00,84.0,64.0,29.99,ESE,111,8.0,15.0,52,0.00,,,0.00,,2013-07-14 19:43:00,
2013-07-14 14:53:00,84.0,64.0,29.99,ESE,111,8.0,15.0,52,0.00,,,0.00,,2013-07-14 19:53:00,
2013-07-14 15:01:00,85.0,64.0,29.99,SE,138,12.0,19.0,49,0.00,,,0.00,,2013-07-14 20:01:00,
2013-07-14 15:11:00,85.0,64.0,29.99,SE,138,12.0,19.0,49,0.00,,,0.00,,2013-07-14 20:11:00,
2013-07-14 15:22:00,84.0,62.0,29.98,SE,132,11.0,19.0,47,0.00,,,0.00,,2013-07-14 20:22:00,
2013-07-14 15:32:00,85.0,63.0,29.98,ESE,118,10.0,18.0,48,0.00,,,0.00,,2013-07-14 20:32:00,
2013-07-14 15:43:00,85.0,63.0,29.98,ESE,118,10.0,18.0,48,0.00,,,0.00,,2013-07-14 20:43:00,
2013-07-14 15:53:00,86.0,62.0,29.98,SSE,156,10.0,19.0,45,0.00,,,0.00,,2013-07-14 20:53:00,
2013-07-14 16:01:00,86.0,62.0,29.98,East,101,8.0,15.0,45,0.00,,,0.00,,2013-07-14 21:01:00,
2013-07-14 16:11:00,86.0,62.0,29.98,East,101,8.0,15.0,45,0.00,,,0.00,,2013-07-14 21:11:00,
2013-07-14 16:22:00,86.0,60.0,29.98,SE,136,12.0,18.0,42,0.00,,,0.00,,2013-07-14 21:22:00,
2013-07-14 16:32:00,87.0,60.0,29.97,SSE,147,10.0,20.0,41,0.00,,,0.00,,2013-07-14 21:32:00,
2013-07-14 16:43:00,87.0,60.0,29.97,SSE,147,10.0,20.0,41,0.00,,,0.00,,2013-07-14 21:43:00,
2013-07-14 16:52:00,87.0,60.0,29.97,SSE,147,10.0,20.0,41,0.00,,,0.00,,2013-07-14 21:52:00,
2013-07-14 17:01:00,87.0,60.0,29.97,SSE,147,10.0,20.0,41,0.00,,,0.00,,2013-07-14 22:01:00,
2013-07-14 17:11:00,87.0,60.0,29.97,SSE,147,10.0,20.0,41,0.00,,,0.00,,2013-07-14 22:11:00,
2013-07-14 17:22:00,87.0,60.0,29.96,SE,125,10.0,18.0,41,0.00,,,0.00,,2013-07-14 22:22:00,
2013-07-14 17:32:00,87.0,60.0,29.96,SE,125,10.0,18.0,41,0.00,,,0.00,,2013-07-14 22:32:00,
2013-07-14 17:42:00,87.0,60.0,29.96,SE,125,10.0,18.0,41,0.00,,,0.00,,2013-07-14 22:42:00,
2013-07-14 17:53:00,88.0,60.0,29.96,SSE,155,8.0,13.0,39,0.00,,,0.00,,2013-07-14 22:53:00,
2013-07-14 18:01:00,87.0,63.0,29.96,SE,132,5.0,14.0,45,0.00,,,0.00,,2013-07-14 23:01:00,
2013-07-14 18:11:00,87.0,63.0,29.96,SE,132,5.0,14.0,45,0.00,,,0.00,,2013-07-14 23:11:00,
2013-07-14 18:22:00,86.0,62.0,29.96,ESE,112,7.0,12.0,44,0.00,,,0.00,,2013-07-14 23:22:00,
2013-07-14 18:32:00,86.0,62.0,29.96,ESE,112,7.0,12.0,44,0.00,,,0.00,,2013-07-14 23:32:00,
2013-07-14 18:42:00,86.0,62.0,29.96,ESE,112,7.0,12.0,44,0.00,,,0.00,,2013-07-14 23:42:00,
2013-07-14 18:53:00,86.0,62.0,29.96,ESE,112,7.0,12.0,44,0.00,,,0.00,,2013-07-14 23:53:00,
2013-07-14 19:02:00,86.0,62.0,29.96,SE,140,9.0,16.0,44,0.00,,,0.00,,2013-07-15 00:02:00,
2013-07-14 19:11:00,86.0,62.0,29.96,SE,140,9.0,16.0,44,0.00,,,0.00,,2013-07-15 00:11:00,
2013-07-14 19:22:00,85.0,63.0,29.96,SE,130,6.0,11.0,48,0.00,,,0.00,,2013-07-15 00:22:00,
2013-07-14 19:32:00,84.0,64.0,29.96,SE,130,5.0,7.0,51,0.00,,,0.00,,2013-07-15 00:32:00,
2013-07-14 19:43:00,84.0,64.0,29.96,SE,130,5.0,7.0,51,0.00,,,0.00,,2013-07-15 00:43:00,
2013-07-14 19:53:00,83.0,64.0,29.96,SE,130,5.0,7.0,53,0.00,,,0.00,,2013-07-15 00:53:00,
2013-07-14 20:01:00,83.0,65.0,29.97,SE,130,6.0,7.0,54,0.00,,,0.00,,2013-07-15 01:01:00,
2013-07-14 20:11:00,83.0,65.0,29.97,SE,130,6.0,7.0,54,0.00,,,0.00,,2013-07-15 01:11:00,
2013-07-14 20:22:00,83.0,65.0,29.97,SE,130,6.0,7.0,54,0.00,,,0.00,,2013-07-15 01:22:00,
2013-07-14 20:32:00,80.0,63.0,29.98,SE,130,5.0,6.0,57,0.00,,,0.00,,2013-07-15 01:32:00,
2013-07-14 20:43:00,80.0,63.0,29.98,SE,130,5.0,6.0,57,0.00,,,0.00,,2013-07-15 01:43:00,
2013-07-14 21:11:00,76.0,64.0,29.98,SE,130,1.0,4.0,66,0.00,,,0.00,,2013-07-15 02:11:00,
2013-07-14 21:22:00,76.0,63.0,29.98,SE,136,0.0,7.0,65,0.00,,,0.00,,2013-07-15 02:22:00,
2013-07-14 21:42:00,73.0,63.0,29.99,SE,136,0.0,0.0,70,0.00,,,0.00,,2013-07-15 02:42:00,
2013-07-14 21:53:00,74.0,62.0,30.00,SE,136,0.0,0.0,67,0.00,,,0.00,,2013-07-15 02:53:00,
2013-07-14 22:02:00,74.0,61.0,30.00,SE,136,6.0,7.0,63,0.00,,,0.00,,2013-07-15 03:02:00,
2013-07-14 22:11:00,74.0,61.0,30.00,SE,136,6.0,7.0,63,0.00,,,0.00,,2013-07-15 03:11:00,
2013-07-14 22:22:00,76.0,61.0,30.00,SSE,155,5.0,8.0,59,0.00,,,0.00,,2013-07-15 03:22:00,
2013-07-14 22:32:00,74.0,61.0,30.01,SSE,155,5.0,7.0,65,0.00,,,0.00,,2013-07-15 03:32:00,
2013-07-14 22:43:00,74.0,61.0,30.01,SSE,155,5.0,7.0,65,0.00,,,0.00,,2013-07-15 03:43:00,
2013-07-14 22:53:00,74.0,61.0,30.01,SSE,155,5.0,7.0,65,0.00,,,0.00,,2013-07-15 03:53:00,
2013-07-14 23:01:00,73.0,61.0,30.01,SSE,155,7.0,7.0,66,0.00,,,0.00,,2013-07-15 04:01:00,
2013-07-14 23:11:00,73.0,61.0,30.01,SSE,155,7.0,7.0,66,0.00,,,0.00,,2013-07-15 04:11:00,
2013-07-14 23:22:00,74.0,61.0,30.02,SSE,155,6.0,8.0,63,0.00,,,0.00,,2013-07-15 04:22:00,
2013-07-14 23:32:00,75.0,61.0,30.02,SSE,158,6.0,8.0,62,0.00,,,0.00,,2013-07-15 04:32:00,
2013-07-14 23:42:00,75.0,61.0,30.02,SSE,158,6.0,8.0,62,0.00,,,0.00,,2013-07-15 04:42:00,
2013-07-14 23:54:00,72.0,61.0,30.03,SSE,157,4.0,5.0,69,0.00,,,0.00,,2013-07-15 04:54:00,